sensor_id;sensor_type;location;lat;lon;timestamp;temperature;humidity
3005;DHT22;1512;51.486;6.610;2023-05-10T00:03:27;14.20;51.50
3005;DHT22;1512;51.486;6.610;2023-05-10T00:07:36;14.00;53.20
3005;DHT22;1512;51.486;6.610;2023-05-10T00:11:44;14.10;99.90
3005;DHT22;1512;51.486;6.610;2023-05-10T00:15:53;14.10;82.60
3005;DHT22;1512;51.486;6.610;2023-05-10T00:20:02;14.00;47.80
3005;DHT22;1512;51.486;6.610;2023-05-10T00:24:12;13.90;99.90
3005;DHT22;1512;51.486;6.610;2023-05-10T00:28:21;13.90;99.90
3005;DHT22;1512;51.486;6.610;2023-05-10T00:32:30;13.90;99.90
3005;DHT22;1512;51.486;6.610;2023-05-10T00:36:39;13.80;99.90
3005;DHT22;1512;51.486;6.610;2023-05-10T00:40:47;13.80;99.90
3005;DHT22;1512;51.486;6.610;2023-05-10T00:44:56;13.90;99.90
3005;DHT22;1512;51.486;6.610;2023-05-10T00:49:05;13.90;99.90
3005;DHT22;1512;51.486;6.610;2023-05-10T00:53:15;13.80;99.90
3005;DHT22;1512;51.486;6.610;2023-05-10T01:01:46;13.80;99.90
3005;DHT22;1512;51.486;6.610;2023-05-10T01:05:55;13.90;99.90
3005;DHT22;1512;51.486;6.610;2023-05-10T01:10:06;13.90;99.90
3005;DHT22;1512;51.486;6.610;2023-05-10T01:14:15;13.80;99.90
3005;DHT22;1512;51.486;6.610;2023-05-10T01:18:27;13.80;99.90
3005;DHT22;1512;51.486;6.610;2023-05-10T01:23:14;13.90;99.90
3005;DHT22;1512;51.486;6.610;2023-05-10T01:27:26;13.80;99.90
3005;DHT22;1512;51.486;6.610;2023-05-10T01:36:26;13.90;99.90
3005;DHT22;1512;51.486;6.610;2023-05-10T01:49:36;14.00;99.90
3005;DHT22;1512;51.486;6.610;2023-05-10T01:53:46;14.10;99.90
3005;DHT22;1512;51.486;6.610;2023-05-10T01:58:04;14.20;99.90
3005;DHT22;1512;51.486;6.610;2023-05-10T02:02:15;14.20;99.90
3005;DHT22;1512;51.486;6.610;2023-05-10T02:06:26;14.20;99.90
3005;DHT22;1512;51.486;6.610;2023-05-10T02:10:35;14.20;99.90
3005;DHT22;1512;51.486;6.610;2023-05-10T02:14:45;14.10;94.60
3005;DHT22;1512;51.486;6.610;2023-05-10T02:18:57;14.10;93.90
3005;DHT22;1512;51.486;6.610;2023-05-10T02:23:08;14.10;90.80
3005;DHT22;1512;51.486;6.610;2023-05-10T02:27:20;14.10;91.10
3005;DHT22;1512;51.486;6.610;2023-05-10T02:31:29;14.10;91.80
3005;DHT22;1512;51.486;6.610;2023-05-10T02:35:39;14.20;88.70
3005;DHT22;1512;51.486;6.610;2023-05-10T02:39:50;14.20;58.70
3005;DHT22;1512;51.486;6.610;2023-05-10T02:44:01;14.10;53.80
3005;DHT22;1512;51.486;6.610;2023-05-10T02:48:11;14.10;68.50
3005;DHT22;1512;51.486;6.610;2023-05-10T02:52:23;14.20;68.40
3005;DHT22;1512;51.486;6.610;2023-05-10T02:56:52;14.20;37.70
3005;DHT22;1512;51.486;6.610;2023-05-10T03:01:01;14.20;34.60
3005;DHT22;1512;51.486;6.610;2023-05-10T03:05:10;14.20;32.10
3005;DHT22;1512;51.486;6.610;2023-05-10T03:09:19;14.10;27.00
3005;DHT22;1512;51.486;6.610;2023-05-10T03:13:56;14.10;32.40
3005;DHT22;1512;51.486;6.610;2023-05-10T03:18:20;14.10;53.10
3005;DHT22;1512;51.486;6.610;2023-05-10T03:22:41;14.10;44.70
3005;DHT22;1512;51.486;6.610;2023-05-10T03:26:49;14.10;57.60
3005;DHT22;1512;51.486;6.610;2023-05-10T03:31:19;14.10;30.70
3005;DHT22;1512;51.486;6.610;2023-05-10T03:35:27;14.10;31.60
3005;DHT22;1512;51.486;6.610;2023-05-10T03:39:36;14.10;60.40
3005;DHT22;1512;51.486;6.610;2023-05-10T03:43:45;14.10;62.80
3005;DHT22;1512;51.486;6.610;2023-05-10T03:47:54;14.20;75.40
3005;DHT22;1512;51.486;6.610;2023-05-10T03:52:03;14.10;55.10
3005;DHT22;1512;51.486;6.610;2023-05-10T03:56:12;14.10;62.00
3005;DHT22;1512;51.486;6.610;2023-05-10T04:00:21;14.10;93.60
3005;DHT22;1512;51.486;6.610;2023-05-10T04:04:30;14.10;92.00
3005;DHT22;1512;51.486;6.610;2023-05-10T04:08:38;14.10;95.80
3005;DHT22;1512;51.486;6.610;2023-05-10T04:12:47;14.00;76.40
3005;DHT22;1512;51.486;6.610;2023-05-10T04:16:56;14.00;99.90
3005;DHT22;1512;51.486;6.610;2023-05-10T04:21:10;14.10;99.90
3005;DHT22;1512;51.486;6.610;2023-05-10T04:25:15;14.10;99.90
3005;DHT22;1512;51.486;6.610;2023-05-10T04:29:24;14.10;99.90
3005;DHT22;1512;51.486;6.610;2023-05-10T04:33:32;14.20;99.90
3005;DHT22;1512;51.486;6.610;2023-05-10T04:37:41;14.10;99.90
3005;DHT22;1512;51.486;6.610;2023-05-10T04:41:50;14.20;99.90
3005;DHT22;1512;51.486;6.610;2023-05-10T04:45:59;14.30;56.60
3005;DHT22;1512;51.486;6.610;2023-05-10T04:50:08;14.10;67.00
3005;DHT22;1512;51.486;6.610;2023-05-10T04:54:17;14.10;74.20
3005;DHT22;1512;51.486;6.610;2023-05-10T04:58:26;14.00;99.90
3005;DHT22;1512;51.486;6.610;2023-05-10T05:02:34;14.00;99.90
3005;DHT22;1512;51.486;6.610;2023-05-10T05:06:43;14.00;99.90
3005;DHT22;1512;51.486;6.610;2023-05-10T05:10:52;14.10;99.90
3005;DHT22;1512;51.486;6.610;2023-05-10T05:15:02;14.00;99.90
3005;DHT22;1512;51.486;6.610;2023-05-10T05:19:11;14.10;99.90
3005;DHT22;1512;51.486;6.610;2023-05-10T05:23:19;14.10;99.90
3005;DHT22;1512;51.486;6.610;2023-05-10T05:27:28;14.00;99.90
3005;DHT22;1512;51.486;6.610;2023-05-10T05:31:37;14.10;99.90
3005;DHT22;1512;51.486;6.610;2023-05-10T05:35:51;14.10;99.90
3005;DHT22;1512;51.486;6.610;2023-05-10T05:39:59;14.10;99.90
3005;DHT22;1512;51.486;6.610;2023-05-10T05:44:09;14.10;99.90
3005;DHT22;1512;51.486;6.610;2023-05-10T05:48:18;14.10;99.90
3005;DHT22;1512;51.486;6.610;2023-05-10T05:52:26;14.30;99.90
3005;DHT22;1512;51.486;6.610;2023-05-10T05:56:35;14.30;99.90
3005;DHT22;1512;51.486;6.610;2023-05-10T06:00:45;14.30;99.90
3005;DHT22;1512;51.486;6.610;2023-05-10T06:04:53;14.30;99.90
3005;DHT22;1512;51.486;6.610;2023-05-10T06:09:02;14.30;99.90
3005;DHT22;1512;51.486;6.610;2023-05-10T06:13:11;14.30;99.90
3005;DHT22;1512;51.486;6.610;2023-05-10T06:17:20;14.30;99.90
3005;DHT22;1512;51.486;6.610;2023-05-10T06:21:29;14.40;99.90
3005;DHT22;1512;51.486;6.610;2023-05-10T06:25:57;14.30;96.40
3005;DHT22;1512;51.486;6.610;2023-05-10T06:30:07;14.40;99.90
3005;DHT22;1512;51.486;6.610;2023-05-10T06:34:18;14.40;99.90
3005;DHT22;1512;51.486;6.610;2023-05-10T06:38:26;14.40;99.90
3005;DHT22;1512;51.486;6.610;2023-05-10T06:42:35;14.40;99.90
3005;DHT22;1512;51.486;6.610;2023-05-10T06:46:43;14.40;99.90
3005;DHT22;1512;51.486;6.610;2023-05-10T06:50:52;14.50;99.90
3005;DHT22;1512;51.486;6.610;2023-05-10T06:55:01;14.40;94.00
3005;DHT22;1512;51.486;6.610;2023-05-10T06:59:11;14.40;52.10
3005;DHT22;1512;51.486;6.610;2023-05-10T07:03:21;14.40;58.80
3005;DHT22;1512;51.486;6.610;2023-05-10T07:07:30;14.50;99.90
3005;DHT22;1512;51.486;6.610;2023-05-10T07:11:38;14.50;99.90
3005;DHT22;1512;51.486;6.610;2023-05-10T07:15:47;14.60;99.90
3005;DHT22;1512;51.486;6.610;2023-05-10T07:19:56;14.60;97.70
3005;DHT22;1512;51.486;6.610;2023-05-10T07:24:05;14.70;87.80
3005;DHT22;1512;51.486;6.610;2023-05-10T07:28:15;14.60;61.10
3005;DHT22;1512;51.486;6.610;2023-05-10T07:32:23;14.70;58.00
3005;DHT22;1512;51.486;6.610;2023-05-10T07:36:32;14.70;3.50
3005;DHT22;1512;51.486;6.610;2023-05-10T07:40:41;14.70;1.00
3005;DHT22;1512;51.486;6.610;2023-05-10T07:44:50;14.80;52.90
3005;DHT22;1512;51.486;6.610;2023-05-10T07:48:59;14.90;42.80
3005;DHT22;1512;51.486;6.610;2023-05-10T07:53:07;15.00;11.80
3005;DHT22;1512;51.486;6.610;2023-05-10T07:57:18;15.00;51.80
3005;DHT22;1512;51.486;6.610;2023-05-10T08:01:32;15.10;1.00
3005;DHT22;1512;51.486;6.610;2023-05-10T08:05:42;14.90;99.90
3005;DHT22;1512;51.486;6.610;2023-05-10T08:09:50;14.70;55.20
3005;DHT22;1512;51.486;6.610;2023-05-10T08:14:05;14.60;1.00
3005;DHT22;1512;51.486;6.610;2023-05-10T08:18:14;14.60;1.00
3005;DHT22;1512;51.486;6.610;2023-05-10T08:26:43;15.00;1.00
3005;DHT22;1512;51.486;6.610;2023-05-10T08:30:52;15.20;99.90
3005;DHT22;1512;51.486;6.610;2023-05-10T08:35:01;15.50;1.00
3005;DHT22;1512;51.486;6.610;2023-05-10T08:39:10;15.60;44.00
3005;DHT22;1512;51.486;6.610;2023-05-10T08:43:39;15.60;46.50
3005;DHT22;1512;51.486;6.610;2023-05-10T08:47:50;15.60;99.40
3005;DHT22;1512;51.486;6.610;2023-05-10T08:52:03;15.70;1.00
3005;DHT22;1512;51.486;6.610;2023-05-10T08:56:13;15.80;1.00
3005;DHT22;1512;51.486;6.610;2023-05-10T09:00:23;15.90;1.00
3005;DHT22;1512;51.486;6.610;2023-05-10T09:04:32;16.00;99.90
3005;DHT22;1512;51.486;6.610;2023-05-10T09:08:42;16.00;99.90
3005;DHT22;1512;51.486;6.610;2023-05-10T09:12:50;15.80;99.90
3005;DHT22;1512;51.486;6.610;2023-05-10T09:17:04;15.80;99.90
3005;DHT22;1512;51.486;6.610;2023-05-10T09:21:16;15.80;99.90
3005;DHT22;1512;51.486;6.610;2023-05-10T09:25:25;15.70;99.90
3005;DHT22;1512;51.486;6.610;2023-05-10T09:29:42;15.60;99.90
3005;DHT22;1512;51.486;6.610;2023-05-10T09:33:51;15.50;99.90
3005;DHT22;1512;51.486;6.610;2023-05-10T09:38:02;15.60;99.90
3005;DHT22;1512;51.486;6.610;2023-05-10T09:42:31;15.50;1.00
3005;DHT22;1512;51.486;6.610;2023-05-10T09:46:39;15.40;1.00
3005;DHT22;1512;51.486;6.610;2023-05-10T09:50:56;15.30;99.90
3005;DHT22;1512;51.486;6.610;2023-05-10T09:55:01;15.20;99.90
3005;DHT22;1512;51.486;6.610;2023-05-10T09:59:11;15.10;99.90
3005;DHT22;1512;51.486;6.610;2023-05-10T10:03:21;15.10;99.90
3005;DHT22;1512;51.486;6.610;2023-05-10T10:07:30;15.30;99.90
3005;DHT22;1512;51.486;6.610;2023-05-10T10:11:39;15.20;1.00
3005;DHT22;1512;51.486;6.610;2023-05-10T10:15:49;15.20;99.90
3005;DHT22;1512;51.486;6.610;2023-05-10T10:19:59;15.10;99.90
3005;DHT22;1512;51.486;6.610;2023-05-10T10:24:08;15.20;1.00
3005;DHT22;1512;51.486;6.610;2023-05-10T10:28:24;15.20;1.00
3005;DHT22;1512;51.486;6.610;2023-05-10T10:37:40;15.30;1.00
3005;DHT22;1512;51.486;6.610;2023-05-10T10:41:36;15.40;1.00
3005;DHT22;1512;51.486;6.610;2023-05-10T10:46:09;15.50;1.00
3005;DHT22;1512;51.486;6.610;2023-05-10T10:50:17;15.50;99.90
3005;DHT22;1512;51.486;6.610;2023-05-10T10:54:29;15.40;1.00
3005;DHT22;1512;51.486;6.610;2023-05-10T10:58:38;15.50;1.00
3005;DHT22;1512;51.486;6.610;2023-05-10T11:02:52;15.50;1.00
3005;DHT22;1512;51.486;6.610;2023-05-10T11:11:36;15.50;1.00
3005;DHT22;1512;51.486;6.610;2023-05-10T11:15:48;15.60;1.00
3005;DHT22;1512;51.486;6.610;2023-05-10T11:20:10;15.70;99.90
3005;DHT22;1512;51.486;6.610;2023-05-10T11:28:50;15.80;87.50
3005;DHT22;1512;51.486;6.610;2023-05-10T11:33:00;15.90;56.00
3005;DHT22;1512;51.486;6.610;2023-05-10T11:37:08;15.70;99.90
3005;DHT22;1512;51.486;6.610;2023-05-10T11:41:20;15.80;99.90
3005;DHT22;1512;51.486;6.610;2023-05-10T11:45:32;15.80;48.20
3005;DHT22;1512;51.486;6.610;2023-05-10T11:49:45;15.80;99.90
3005;DHT22;1512;51.486;6.610;2023-05-10T11:53:56;15.80;99.90
3005;DHT22;1512;51.486;6.610;2023-05-10T11:58:05;15.90;66.30
3005;DHT22;1512;51.486;6.610;2023-05-10T12:02:16;16.00;1.00
3005;DHT22;1512;51.486;6.610;2023-05-10T12:06:28;15.90;55.40
3005;DHT22;1512;51.486;6.610;2023-05-10T12:10:39;16.10;1.00
3005;DHT22;1512;51.486;6.610;2023-05-10T12:14:50;16.20;1.00
3005;DHT22;1512;51.486;6.610;2023-05-10T12:19:00;16.30;1.00
3005;DHT22;1512;51.486;6.610;2023-05-10T12:23:10;16.40;1.00
3005;DHT22;1512;51.486;6.610;2023-05-10T12:27:19;16.30;1.00
3005;DHT22;1512;51.486;6.610;2023-05-10T12:31:28;16.50;1.00
3005;DHT22;1512;51.486;6.610;2023-05-10T12:35:54;16.70;1.00
3005;DHT22;1512;51.486;6.610;2023-05-10T12:40:07;16.80;1.00
3005;DHT22;1512;51.486;6.610;2023-05-10T12:44:16;17.10;1.00
3005;DHT22;1512;51.486;6.610;2023-05-10T12:48:25;17.30;1.00
3005;DHT22;1512;51.486;6.610;2023-05-10T12:52:36;17.40;1.00
3005;DHT22;1512;51.486;6.610;2023-05-10T12:56:44;17.60;1.00
3005;DHT22;1512;51.486;6.610;2023-05-10T13:00:53;17.60;1.00
3005;DHT22;1512;51.486;6.610;2023-05-10T13:05:04;17.60;1.00
3005;DHT22;1512;51.486;6.610;2023-05-10T13:09:13;17.80;1.00
3005;DHT22;1512;51.486;6.610;2023-05-10T13:13:22;17.60;1.00
3005;DHT22;1512;51.486;6.610;2023-05-10T13:17:31;17.60;1.00
3005;DHT22;1512;51.486;6.610;2023-05-10T13:21:40;17.80;1.00
3005;DHT22;1512;51.486;6.610;2023-05-10T13:25:51;17.80;1.00
3005;DHT22;1512;51.486;6.610;2023-05-10T13:30:02;18.00;1.00
3005;DHT22;1512;51.486;6.610;2023-05-10T13:34:11;18.00;1.00
3005;DHT22;1512;51.486;6.610;2023-05-10T13:38:20;18.00;1.00
3005;DHT22;1512;51.486;6.610;2023-05-10T13:42:29;18.10;1.00
3005;DHT22;1512;51.486;6.610;2023-05-10T13:46:39;18.20;1.00
3005;DHT22;1512;51.486;6.610;2023-05-10T13:50:48;18.00;1.00
3005;DHT22;1512;51.486;6.610;2023-05-10T13:54:57;17.90;1.00
3005;DHT22;1512;51.486;6.610;2023-05-10T13:59:09;18.10;1.00
3005;DHT22;1512;51.486;6.610;2023-05-10T14:03:17;18.60;1.00
3005;DHT22;1512;51.486;6.610;2023-05-10T14:07:26;19.00;1.00
3005;DHT22;1512;51.486;6.610;2023-05-10T14:11:35;19.40;1.00
3005;DHT22;1512;51.486;6.610;2023-05-10T14:15:44;19.30;1.00
3005;DHT22;1512;51.486;6.610;2023-05-10T14:19:54;19.40;1.00
3005;DHT22;1512;51.486;6.610;2023-05-10T14:24:03;19.40;1.00
3005;DHT22;1512;51.486;6.610;2023-05-10T14:28:12;19.10;1.00
3005;DHT22;1512;51.486;6.610;2023-05-10T14:32:22;18.70;1.00
3005;DHT22;1512;51.486;6.610;2023-05-10T14:36:30;18.50;1.00
3005;DHT22;1512;51.486;6.610;2023-05-10T14:40:39;18.50;1.00
3005;DHT22;1512;51.486;6.610;2023-05-10T14:44:48;18.70;1.00
3005;DHT22;1512;51.486;6.610;2023-05-10T14:49:16;18.60;1.00
3005;DHT22;1512;51.486;6.610;2023-05-10T14:53:25;18.30;1.00
3005;DHT22;1512;51.486;6.610;2023-05-10T14:57:33;18.10;1.00
3005;DHT22;1512;51.486;6.610;2023-05-10T15:01:42;17.60;1.00
3005;DHT22;1512;51.486;6.610;2023-05-10T15:05:52;17.30;1.00
3005;DHT22;1512;51.486;6.610;2023-05-10T15:10:20;17.00;1.00
3005;DHT22;1512;51.486;6.610;2023-05-10T15:14:29;16.70;1.00
3005;DHT22;1512;51.486;6.610;2023-05-10T15:18:38;16.30;1.00
3005;DHT22;1512;51.486;6.610;2023-05-10T15:22:47;16.10;1.00
3005;DHT22;1512;51.486;6.610;2023-05-10T15:26:59;15.70;5.40
3005;DHT22;1512;51.486;6.610;2023-05-10T15:31:14;15.40;99.90
3005;DHT22;1512;51.486;6.610;2023-05-10T15:35:23;15.30;99.90
3005;DHT22;1512;51.486;6.610;2023-05-10T15:39:31;15.20;1.00
3005;DHT22;1512;51.486;6.610;2023-05-10T15:43:40;15.10;1.00
3005;DHT22;1512;51.486;6.610;2023-05-10T15:47:49;15.00;1.00
3005;DHT22;1512;51.486;6.610;2023-05-10T15:52:01;15.00;22.50
3005;DHT22;1512;51.486;6.610;2023-05-10T15:56:09;15.00;1.00
3005;DHT22;1512;51.486;6.610;2023-05-10T16:00:20;15.00;1.00
3005;DHT22;1512;51.486;6.610;2023-05-10T16:04:29;15.20;99.90
3005;DHT22;1512;51.486;6.610;2023-05-10T16:08:38;15.20;1.00
3005;DHT22;1512;51.486;6.610;2023-05-10T16:12:46;15.10;99.90
3005;DHT22;1512;51.486;6.610;2023-05-10T16:16:55;15.20;1.00
3005;DHT22;1512;51.486;6.610;2023-05-10T16:21:05;15.20;99.90
3005;DHT22;1512;51.486;6.610;2023-05-10T16:25:14;15.10;99.90
3005;DHT22;1512;51.486;6.610;2023-05-10T16:29:24;15.20;99.90
3005;DHT22;1512;51.486;6.610;2023-05-10T16:33:52;15.10;99.90
3005;DHT22;1512;51.486;6.610;2023-05-10T16:38:00;15.10;1.00
3005;DHT22;1512;51.486;6.610;2023-05-10T16:42:09;15.20;1.00
3005;DHT22;1512;51.486;6.610;2023-05-10T16:46:18;15.30;1.00
3005;DHT22;1512;51.486;6.610;2023-05-10T16:50:27;15.20;1.00
3005;DHT22;1512;51.486;6.610;2023-05-10T16:54:36;15.10;1.00
3005;DHT22;1512;51.486;6.610;2023-05-10T16:58:46;15.20;1.00
3005;DHT22;1512;51.486;6.610;2023-05-10T17:02:56;15.30;1.00
3005;DHT22;1512;51.486;6.610;2023-05-10T17:07:05;15.40;1.00
3005;DHT22;1512;51.486;6.610;2023-05-10T17:11:15;15.40;1.00
3005;DHT22;1512;51.486;6.610;2023-05-10T17:15:23;15.40;99.90
3005;DHT22;1512;51.486;6.610;2023-05-10T17:19:32;15.50;86.10
3005;DHT22;1512;51.486;6.610;2023-05-10T17:23:41;15.40;1.00
3005;DHT22;1512;51.486;6.610;2023-05-10T17:27:52;15.40;1.00
3005;DHT22;1512;51.486;6.610;2023-05-10T17:32:04;15.30;1.00
3005;DHT22;1512;51.486;6.610;2023-05-10T17:36:17;15.30;1.00
3005;DHT22;1512;51.486;6.610;2023-05-10T17:40:29;15.40;24.50
3005;DHT22;1512;51.486;6.610;2023-05-10T17:44:38;15.30;1.00
3005;DHT22;1512;51.486;6.610;2023-05-10T17:48:49;15.20;1.00
3005;DHT22;1512;51.486;6.610;2023-05-10T17:53:03;15.10;99.90
3005;DHT22;1512;51.486;6.610;2023-05-10T17:57:12;15.10;1.00
3005;DHT22;1512;51.486;6.610;2023-05-10T18:01:24;15.00;99.90
3005;DHT22;1512;51.486;6.610;2023-05-10T18:05:37;15.00;21.60
3005;DHT22;1512;51.486;6.610;2023-05-10T18:09:49;14.90;99.90
3005;DHT22;1512;51.486;6.610;2023-05-10T18:14:18;15.00;99.90
3005;DHT22;1512;51.486;6.610;2023-05-10T18:18:35;14.90;99.90
3005;DHT22;1512;51.486;6.610;2023-05-10T18:22:45;14.90;99.90
3005;DHT22;1512;51.486;6.610;2023-05-10T18:26:58;14.90;99.90
3005;DHT22;1512;51.486;6.610;2023-05-10T18:31:10;14.90;99.90
3005;DHT22;1512;51.486;6.610;2023-05-10T18:35:24;14.90;1.00
3005;DHT22;1512;51.486;6.610;2023-05-10T18:39:33;14.90;1.00
3005;DHT22;1512;51.486;6.610;2023-05-10T18:43:46;14.90;1.00
3005;DHT22;1512;51.486;6.610;2023-05-10T18:47:55;14.90;1.00
3005;DHT22;1512;51.486;6.610;2023-05-10T18:52:04;14.90;22.30
3005;DHT22;1512;51.486;6.610;2023-05-10T18:56:19;14.90;99.90
3005;DHT22;1512;51.486;6.610;2023-05-10T19:00:39;14.90;99.90
3005;DHT22;1512;51.486;6.610;2023-05-10T19:04:48;15.00;92.20
3005;DHT22;1512;51.486;6.610;2023-05-10T19:09:02;14.90;93.90
3005;DHT22;1512;51.486;6.610;2023-05-10T19:13:14;14.90;99.90
3005;DHT22;1512;51.486;6.610;2023-05-10T19:17:30;14.90;99.90
3005;DHT22;1512;51.486;6.610;2023-05-10T19:21:46;14.90;1.00
3005;DHT22;1512;51.486;6.610;2023-05-10T19:25:56;14.80;99.90
3005;DHT22;1512;51.486;6.610;2023-05-10T19:30:08;14.80;1.00
3005;DHT22;1512;51.486;6.610;2023-05-10T19:34:19;14.80;1.00
3005;DHT22;1512;51.486;6.610;2023-05-10T19:38:29;14.80;1.00
3005;DHT22;1512;51.486;6.610;2023-05-10T19:42:40;14.80;1.00
3005;DHT22;1512;51.486;6.610;2023-05-10T19:46:49;14.80;1.00
3005;DHT22;1512;51.486;6.610;2023-05-10T19:51:02;14.80;1.00
3005;DHT22;1512;51.486;6.610;2023-05-10T19:55:24;14.80;31.10
3005;DHT22;1512;51.486;6.610;2023-05-10T19:59:28;14.70;99.90
3005;DHT22;1512;51.486;6.610;2023-05-10T20:03:38;14.70;99.90
3005;DHT22;1512;51.486;6.610;2023-05-10T20:07:51;14.70;99.90
3005;DHT22;1512;51.486;6.610;2023-05-10T20:12:06;14.70;99.90
3005;DHT22;1512;51.486;6.610;2023-05-10T20:16:21;14.70;99.90
3005;DHT22;1512;51.486;6.610;2023-05-10T20:20:44;14.60;1.00
3005;DHT22;1512;51.486;6.610;2023-05-10T20:25:09;14.60;98.70
3005;DHT22;1512;51.486;6.610;2023-05-10T20:29:32;14.50;1.00
3005;DHT22;1512;51.486;6.610;2023-05-10T20:33:55;14.50;99.90
3005;DHT22;1512;51.486;6.610;2023-05-10T20:38:11;14.50;99.90
3005;DHT22;1512;51.486;6.610;2023-05-10T20:42:33;14.40;99.90
3005;DHT22;1512;51.486;6.610;2023-05-10T20:46:53;14.50;99.90
3005;DHT22;1512;51.486;6.610;2023-05-10T20:51:18;14.50;99.90
3005;DHT22;1512;51.486;6.610;2023-05-10T20:55:53;14.50;99.90
3005;DHT22;1512;51.486;6.610;2023-05-10T21:00:35;14.40;98.60
3005;DHT22;1512;51.486;6.610;2023-05-10T21:04:55;14.40;1.00
3005;DHT22;1512;51.486;6.610;2023-05-10T21:09:28;14.40;10.00
3005;DHT22;1512;51.486;6.610;2023-05-10T21:14:03;14.30;99.90
3005;DHT22;1512;51.486;6.610;2023-05-10T21:18:24;14.30;1.00
3005;DHT22;1512;51.486;6.610;2023-05-10T21:22:56;14.30;1.00
3005;DHT22;1512;51.486;6.610;2023-05-10T21:27:11;14.20;99.90
3005;DHT22;1512;51.486;6.610;2023-05-10T21:31:43;14.20;1.00
3005;DHT22;1512;51.486;6.610;2023-05-10T21:36:06;14.10;99.90
3005;DHT22;1512;51.486;6.610;2023-05-10T21:40:44;14.10;1.00
3005;DHT22;1512;51.486;6.610;2023-05-10T21:45:20;14.10;99.90
3005;DHT22;1512;51.486;6.610;2023-05-10T21:54:20;14.10;1.00
3005;DHT22;1512;51.486;6.610;2023-05-10T21:59:17;14.10;1.00
3005;DHT22;1512;51.486;6.610;2023-05-10T22:03:49;14.00;1.00
3005;DHT22;1512;51.486;6.610;2023-05-10T22:08:28;14.10;1.00
3005;DHT22;1512;51.486;6.610;2023-05-10T22:13:05;14.10;1.00
3005;DHT22;1512;51.486;6.610;2023-05-10T22:22:33;14.10;1.00
3005;DHT22;1512;51.486;6.610;2023-05-10T22:27:15;14.10;1.00
3005;DHT22;1512;51.486;6.610;2023-05-10T22:31:30;14.10;1.00
3005;DHT22;1512;51.486;6.610;2023-05-10T22:35:50;14.10;1.00
3005;DHT22;1512;51.486;6.610;2023-05-10T22:40:27;14.10;1.00
3005;DHT22;1512;51.486;6.610;2023-05-10T22:45:00;14.10;1.90
3005;DHT22;1512;51.486;6.610;2023-05-10T22:49:53;14.10;2.20
3005;DHT22;1512;51.486;6.610;2023-05-10T22:54:27;14.10;1.00
3005;DHT22;1512;51.486;6.610;2023-05-10T22:58:58;14.00;1.00
3005;DHT22;1512;51.486;6.610;2023-05-10T23:03:35;14.00;7.00
3005;DHT22;1512;51.486;6.610;2023-05-10T23:08:08;13.90;23.80
3005;DHT22;1512;51.486;6.610;2023-05-10T23:12:55;13.90;26.70
3005;DHT22;1512;51.486;6.610;2023-05-10T23:17:19;13.90;54.60
3005;DHT22;1512;51.486;6.610;2023-05-10T23:21:59;14.00;53.20
3005;DHT22;1512;51.486;6.610;2023-05-10T23:26:40;14.00;35.90
3005;DHT22;1512;51.486;6.610;2023-05-10T23:31:19;14.00;30.60
3005;DHT22;1512;51.486;6.610;2023-05-10T23:35:58;14.00;34.40
3005;DHT22;1512;51.486;6.610;2023-05-10T23:40:32;13.90;27.50
3005;DHT22;1512;51.486;6.610;2023-05-10T23:44:42;13.70;43.40
3005;DHT22;1512;51.486;6.610;2023-05-10T23:48:51;13.70;82.10
3005;DHT22;1512;51.486;6.610;2023-05-10T23:52:59;13.60;98.90
3005;DHT22;1512;51.486;6.610;2023-05-10T23:57:08;13.70;99.90
